Time;durP1;ratioP1;P1;durP2;ratioP2;P2;SDS_P1;SDS_P2;PMS_P1;PMS_P2;Temp;Humidity;BMP_temperature;BMP_pressure;BME280_temperature;BME280_humidity;BME280_pressure;Samples;Min_cycle;Max_cycle;Signal;HPM_P1;HPM_P2
2022/03/11 00:01:35;;;;;;;56.72;25.27;;;;;;;28.77;59.13;100848.56;5066575;27;69577;-45
2022/03/11 00:04:26;;;;;;;70.65;33.22;;;;;;;28.81;62.18;100851.69;5065824;28;66398;-43
2022/03/11 00:06:57;;;;;;;79.72;42.00;;;;;;;28.69;64.48;100841.50;5065244;27;70651;-42
2022/03/11 00:09:28;;;;;;;81.07;45.10;;;;;;;28.68;65.57;100868.69;5079369;27;65522;-41
2022/03/11 00:12:03;;;;;;;80.57;45.10;;;;;;;28.54;65.29;100850.84;5066133;27;70012;-40
2022/03/11 00:14:37;;;;;;;101.37;47.63;;;;;;;28.59;66.59;100873.47;5064856;28;66394;-38
2022/03/11 00:17:08;;;;;;;92.32;49.67;;;;;;;28.35;66.95;100839.75;5064748;28;69503;-40
2022/03/11 00:19:39;;;;;;;99.45;52.55;;;;;;;28.51;66.74;100874.47;5072372;28;65967;-39
2022/03/11 00:22:10;;;;;;;93.03;54.30;;;;;;;28.44;67.49;100868.22;5073641;28;69853;-40
2022/03/11 00:24:40;;;;;;;100.65;56.30;;;;;;;28.47;67.72;100875.09;5062578;28;66813;-38
2022/03/11 00:27:11;;;;;;;97.90;56.88;;;;;;;28.43;67.23;100869.28;5076664;27;69748;-42
2022/03/11 00:29:42;;;;;;;92.50;55.83;;;;;;;28.37;67.67;100869.25;5062050;28;65188;-41
2022/03/11 00:32:13;;;;;;;98.13;56.70;;;;;;;28.43;67.84;100879.25;5075910;28;69776;-40
2022/03/11 00:34:44;;;;;;;93.55;53.83;;;;;;;28.48;67.12;100877.59;5066137;28;65467;-39
2022/03/11 00:37:15;;;;;;;95.78;52.05;;;;;;;28.52;67.01;100881.53;5074307;28;68951;-40
2022/03/11 00:39:46;;;;;;;91.90;51.45;;;;;;;28.54;66.44;100870.56;5079050;28;66546;-40
2022/03/11 00:42:17;;;;;;;87.65;50.75;;;;;;;28.62;66.60;100883.03;5094855;27;69115;-39
2022/03/11 00:44:48;;;;;;;87.25;50.00;;;;;;;28.65;66.10;100885.31;5078226;28;66941;-39
2022/03/11 00:47:19;;;;;;;89.00;51.10;;;;;;;28.63;65.89;100873.88;5077838;28;70788;-41
2022/03/11 00:49:50;;;;;;;94.32;48.22;;;;;;;28.67;66.03;100877.84;5076890;28;65365;-40
2022/03/11 00:52:21;;;;;;;79.95;44.85;;;;;;;28.72;65.82;100899.63;5078024;28;71581;-41
2022/03/11 00:54:52;;;;;;;80.30;43.00;;;;;;;28.65;65.20;100874.50;5077718;28;66194;-40
2022/03/11 00:57:23;;;;;;;83.88;43.80;;;;;;;28.75;65.72;100893.81;5076846;28;68994;-40
2022/03/11 00:59:53;;;;;;;84.88;44.83;;;;;;;28.75;65.44;100893.81;5074261;27;65623;-38
2022/03/11 01:02:24;;;;;;;84.15;43.67;;;;;;;28.76;65.54;100884.69;5064595;28;70035;-39
2022/03/11 01:04:55;;;;;;;83.53;42.42;;;;;;;28.68;65.07;100879.50;5065176;27;65051;-40
2022/03/11 01:07:26;;;;;;;84.57;43.28;;;;;;;28.84;64.97;100903.41;5063510;27;69382;-39
2022/03/11 01:09:56;;;;;;;81.03;41.10;;;;;;;28.86;64.70;100903.19;5069642;28;65563;-40
2022/03/11 01:12:27;;;;;;;83.18;40.47;;;;;;;28.82;64.92;100897.38;5076124;28;69399;-39
2022/03/11 01:14:58;;;;;;;71.78;39.13;;;;;;;28.84;64.50;100898.00;5074458;28;65243;-39
2022/03/11 01:17:29;;;;;;;74.53;39.08;;;;;;;28.83;64.52;100895.50;5065705;27;69543;-39
2022/03/11 01:20:01;;;;;;;;;;;;;;;28.65;65.24;100906.91;5077279;28;66581;-40
2022/03/11 01:22:32;;;;;;;70.53;37.63;;;;;;;28.94;64.06;100914.59;5079638;27;69179;-40
2022/03/11 01:25:05;;;;;;;74.22;37.97;;;;;;;28.98;64.36;100912.34;5080705;28;66670;-45
2022/03/11 01:27:39;;;;;;;76.68;37.95;;;;;;;29.00;63.85;100909.44;5070437;27;68958;-42
2022/03/11 01:30:16;;;;;;;65.10;36.33;;;;;;;29.02;64.02;100910.06;5079691;28;66533;-39
2022/03/11 01:32:47;;;;;;;62.28;35.95;;;;;;;29.05;63.91;100913.19;5060472;28;69537;-46
2022/03/11 01:35:18;;;;;;;69.82;35.30;;;;;;;28.78;63.75;100861.03;5079315;28;66964;-38
2022/03/11 01:37:48;;;;;;;71.28;35.25;;;;;;;29.10;63.55;100905.31;5077881;28;69717;-38
2022/03/11 01:40:19;;;;;;;60.83;32.50;;;;;;;29.13;62.95;100901.38;5078546;28;66049;-41
2022/03/11 01:42:50;;;;;;;63.25;33.65;;;;;;;29.13;63.28;100896.78;5079383;27;70436;-39
2022/03/11 01:45:21;;;;;;;63.88;30.45;;;;;;;29.19;62.76;100908.63;5080564;27;65557;-38
2022/03/11 01:47:52;;;;;;;66.75;32.92;;;;;;;29.22;62.51;100910.09;5069754;28;70486;-40
2022/03/11 01:50:23;;;;;;;63.67;31.67;;;;;;;29.21;62.33;100909.25;5055532;28;65742;-39
2022/03/11 01:52:57;;;;;;;55.22;30.90;;;;;;;29.27;62.04;100908.41;5040158;28;45946;-39
2022/03/11 01:55:28;;;;;;;58.67;32.07;;;;;;;29.29;62.15;100906.34;5067678;28;65119;-40
2022/03/11 01:57:58;;;;;;;64.40;32.47;;;;;;;29.33;61.91;100902.19;5075785;27;70104;-38
2022/03/11 02:00:31;;;;;;;63.57;31.87;;;;;;;29.35;62.22;100905.50;5054239;28;66221;-39
2022/03/11 02:03:02;;;;;;;70.43;33.78;;;;;;;29.37;62.02;100903.44;5067011;28;69539;-40
2022/03/11 02:05:33;;;;;;;68.68;37.33;;;;;;;29.41;61.67;100903.84;5064939;28;66532;-39
2022/03/11 02:08:03;;;;;;;75.03;39.97;;;;;;;29.38;61.93;100883.47;5065867;28;70252;-39
2022/03/11 02:10:34;;;;;;;68.65;38.22;;;;;;;29.43;61.68;100898.25;5069114;27;65149;-39
2022/03/11 02:13:06;;;;;;;76.18;39.70;;;;;;;29.46;61.10;100900.50;5069384;28;69087;-39
2022/03/11 02:15:37;;;;;;;79.78;40.85;;;;;;;29.53;60.91;100906.72;5065728;27;65374;-39
2022/03/11 02:18:07;;;;;;;77.65;45.03;;;;;;;29.53;60.92;100898.63;5064493;28;70415;-38
2022/03/11 02:20:39;;;;;;;81.20;49.57;;;;;;;29.44;60.98;100875.56;5061546;28;66100;-38
2022/03/11 02:23:12;;;;;;;80.95;49.83;;;;;;;28.83;60.65;100771.31;5064812;28;70092;-39
2022/03/11 02:25:43;;;;;;;95.95;53.42;;;;;;;29.62;61.19;100895.50;5076037;27;66136;-38
2022/03/11 02:28:13;;;;;;;90.85;53.47;;;;;;;29.66;60.66;100887.81;5071981;27;69665;-39
2022/03/11 02:30:44;;;;;;;88.72;51.40;;;;;;;29.69;61.04;100895.50;5058103;28;66190;-39
2022/03/11 02:33:15;;;;;;;91.43;57.10;;;;;;;29.65;60.96;100878.06;5069637;28;70156;-39
2022/03/11 02:35:46;;;;;;;103.45;60.83;;;;;;;29.69;60.97;100873.03;5066987;27;65195;-38
2022/03/11 02:38:17;;;;;;;102.03;63.40;;;;;;;29.73;60.42;100888.63;5058659;28;70857;-39
2022/03/11 02:40:47;;;;;;;103.30;64.88;;;;;;;29.76;61.09;100880.09;5073786;28;65836;-39
2022/03/11 02:43:20;;;;;;;116.70;68.68;;;;;;;29.68;61.02;100858.69;5077293;28;70112;-39
2022/03/11 02:45:51;;;;;;;113.43;72.50;;;;;;;29.84;60.52;100873.63;5073953;28;66190;-39
2022/03/11 02:48:22;;;;;;;118.28;74.25;;;;;;;29.75;60.82;100854.09;5068687;27;69461;-39
2022/03/11 02:50:53;;;;;;;120.32;73.03;;;;;;;29.73;60.94;100831.88;5070722;27;66580;-39
2022/03/11 02:53:23;;;;;;;106.25;72.15;;;;;;;29.84;60.48;100863.63;5076638;28;70076;-39
2022/03/11 02:55:54;;;;;;;118.88;73.05;;;;;;;29.81;59.76;100839.75;5072085;28;67048;-39
2022/03/11 02:58:25;;;;;;;108.10;67.18;;;;;;;29.94;59.88;100854.22;5066985;28;70878;-40
2022/03/11 03:00:56;;;;;;;116.80;67.85;;;;;;;29.95;59.74;100855.88;5055434;28;65682;-39
2022/03/11 03:03:27;;;;;;;110.93;67.00;;;;;;;29.98;59.57;100850.06;5064546;28;70431;-39
2022/03/11 03:05:58;;;;;;;97.60;65.50;;;;;;;29.99;59.37;100847.13;5077955;28;66421;-39
2022/03/11 03:08:29;;;;;;;100.55;62.40;;;;;;;30.03;58.73;100831.28;5069363;28;69548;-39
2022/03/11 03:11:00;;;;;;;99.38;59.05;;;;;;;29.99;58.73;100816.56;5076672;28;65521;-39
2022/03/11 03:13:30;;;;;;;91.47;58.03;;;;;;;30.12;58.33;100840.84;5072848;28;71453;-39
2022/03/11 03:16:01;;;;;;;93.93;59.53;;;;;;;30.15;58.74;100835.00;5068279;28;65783;-40
2022/03/11 03:18:32;;;;;;;92.50;59.00;;;;;;;30.18;58.25;100834.56;5081829;28;69031;-40
2022/03/11 03:21:04;;;;;;;;;;;;;;;29.91;59.35;100830.31;5067381;27;66160;-39
2022/03/11 03:23:34;;;;;;;94.13;62.10;;;;;;;30.13;59.03;100822.72;5072584;28;69607;-40
2022/03/11 03:26:05;;;;;;;104.75;66.43;;;;;;;30.25;58.73;100832.66;5078267;28;66667;-39
2022/03/11 03:28:36;;;;;;;102.10;61.85;;;;;;;30.24;58.53;100825.59;5087090;27;70510;-39
2022/03/11 03:31:07;;;;;;;86.93;59.67;;;;;;;30.26;58.11;100815.41;5085255;27;66179;-39
2022/03/11 03:33:37;;;;;;;88.40;58.78;;;;;;;30.37;58.61;100819.28;5080437;28;69459;-39
2022/03/11 03:36:09;;;;;;;87.57;57.15;;;;;;;30.40;57.92;100820.72;5063746;28;65252;-39
2022/03/11 03:38:40;;;;;;;83.20;55.15;;;;;;;30.44;57.70;100816.53;5067826;28;69281;-41
2022/03/11 03:41:11;;;;;;;91.63;52.72;;;;;;;30.34;57.49;100799.94;5079172;27;66021;-39
2022/03/11 03:43:41;;;;;;;83.53;50.63;;;;;;;30.47;57.85;100816.09;5068279;28;70266;-38
2022/03/11 03:46:12;;;;;;;75.55;47.92;;;;;;;30.49;57.25;100820.22;5066914;27;65663;-38
2022/03/11 03:48:43;;;;;;;76.38;44.45;;;;;;;30.49;56.84;100803.16;5058729;28;70602;-39
2022/03/11 03:51:13;;;;;;;73.38;43.80;;;;;;;30.55;57.11;100807.69;5075554;28;66380;-39
2022/03/11 03:53:44;;;;;;;68.35;43.42;;;;;;;30.57;57.25;100802.91;5075092;27;69503;-39
2022/03/11 03:56:14;;;;;;;73.10;43.45;;;;;;;30.49;56.63;100782.34;5073843;28;66297;-39
2022/03/11 03:58:45;;;;;;;83.28;39.85;;;;;;;30.64;56.13;100794.72;5076424;28;70208;-39
2022/03/11 04:01:16;;;;;;;66.25;39.15;;;;;;;30.32;55.79;100734.41;5061545;28;65873;-39
2022/03/11 04:03:46;;;;;;;59.70;37.83;;;;;;;30.69;56.05;100793.00;5073857;28;70403;-39
2022/03/11 04:06:17;;;;;;;51.08;34.78;;;;;;;30.63;55.85;100777.66;5072719;28;66238;-39
2022/03/11 04:08:47;;;;;;;57.50;34.47;;;;;;;30.76;54.83;100781.28;5081040;27;70465;-38
2022/03/11 04:11:18;;;;;;;48.92;32.47;;;;;;;30.62;54.17;100757.06;5081393;28;65395;-39
2022/03/11 04:13:50;;;;;;;52.25;31.77;;;;;;;30.79;53.86;100775.44;5081451;28;70207;-40
2022/03/11 04:16:25;;;;;;;49.75;31.05;;;;;;;30.81;53.80;100773.34;5062529;28;66785;-39
2022/03/11 04:18:56;;;;;;;52.27;31.40;;;;;;;30.79;53.83;100776.28;5074829;27;69739;-39
2022/03/11 04:21:27;;;;;;;43.08;29.38;;;;;;;30.87;53.56;100777.88;5074961;27;66357;-39
2022/03/11 04:23:57;;;;;;;50.38;31.35;;;;;;;30.88;53.30;100752.47;5073284;28;70097;-39
2022/03/11 04:26:28;;;;;;;52.15;30.20;;;;;;;30.93;53.24;100755.34;5074627;28;65282;-39
2022/03/11 04:28:58;;;;;;;50.55;31.30;;;;;;;30.93;52.98;100742.63;5087321;27;70198;-39
2022/03/11 04:31:29;;;;;;;50.45;32.63;;;;;;;30.98;52.53;100735.69;5060857;27;66462;-38
2022/03/11 04:34:00;;;;;;;45.45;31.27;;;;;;;30.96;53.02;100727.78;5072736;28;70491;-39
2022/03/11 04:36:33;;;;;;;47.17;31.55;;;;;;;31.04;53.00;100723.97;5067019;28;66270;-38
2022/03/11 04:39:05;;;;;;;50.08;30.83;;;;;;;31.04;52.36;100705.81;5079043;28;71455;-38
2022/03/11 04:41:36;;;;;;;;;;;;;;;30.85;53.22;100709.59;5066955;27;66070;-38
2022/03/11 04:44:06;;;;;;;55.20;32.05;;;;;;;31.09;52.48;100694.28;5069501;27;70054;-38
2022/03/11 04:46:37;;;;;;;52.50;30.95;;;;;;;31.14;52.31;100697.97;5078424;28;66963;-39
2022/03/11 04:49:08;;;;;;;52.80;33.22;;;;;;;31.12;52.22;100683.84;5080762;27;69909;-39
2022/03/11 04:51:39;;;;;;;46.10;31.90;;;;;;;31.19;52.08;100686.47;5065911;27;66260;-38
2022/03/11 04:54:09;;;;;;;51.22;31.60;;;;;;;31.19;52.22;100669.41;5069539;28;70197;-40
2022/03/11 04:56:40;;;;;;;49.63;31.00;;;;;;;31.24;52.07;100674.97;5072519;28;66235;-40
2022/03/11 04:59:11;;;;;;;50.20;30.80;;;;;;;31.27;52.05;100674.50;5070599;28;70240;-40
2022/03/11 05:01:41;;;;;;;51.10;29.45;;;;;;;31.23;51.71;100662.44;5067856;28;65661;-39
2022/03/11 05:04:12;;;;;;;48.00;28.95;;;;;;;31.27;52.07;100658.25;5062579;28;69013;-39
2022/03/11 05:06:43;;;;;;;47.35;29.88;;;;;;;31.35;51.83;100655.22;5074710;27;66910;-39
2022/03/11 05:09:13;;;;;;;41.47;30.33;;;;;;;31.36;51.59;100651.47;5080058;28;70063;-39
2022/03/11 05:11:44;;;;;;;52.55;30.15;;;;;;;31.33;51.96;100638.34;5079545;28;67540;-39
2022/03/11 05:14:15;;;;;;;45.55;27.95;;;;;;;31.40;51.45;100636.41;5075360;28;70766;-39
2022/03/11 05:16:46;;;;;;;56.22;29.77;;;;;;;31.43;51.40;100641.38;5068508;28;66062;-39
2022/03/11 05:19:17;;;;;;;48.00;31.33;;;;;;;31.41;51.25;100627.22;5062312;27;70124;-39
2022/03/11 05:21:47;;;;;;;52.33;29.95;;;;;;;31.46;50.75;100616.53;5067965;28;65783;-39
2022/03/11 05:24:18;;;;;;;46.33;28.20;;;;;;;31.42;50.75;100601.75;5066064;27;70084;-40
2022/03/11 05:26:49;;;;;;;48.63;28.75;;;;;;;31.52;50.39;100604.75;5073825;27;66451;-39
2022/03/11 05:29:19;;;;;;;53.05;29.35;;;;;;;31.57;50.57;100617.63;5083417;27;69547;-40
2022/03/11 05:31:50;;;;;;;55.03;29.17;;;;;;;31.61;50.26;100610.66;5066101;28;66282;-40
2022/03/11 05:34:21;;;;;;;42.80;27.52;;;;;;;31.60;50.80;100604.41;5078024;27;70112;-40
2022/03/11 05:36:51;;;;;;;44.42;29.40;;;;;;;31.64;50.78;100590.41;5073933;28;66431;-40
2022/03/11 05:39:22;;;;;;;44.78;30.20;;;;;;;31.69;50.75;100585.09;5072174;28;69979;-41
2022/03/11 05:41:53;;;;;;;53.88;29.30;;;;;;;31.71;50.88;100594.66;5079335;28;65747;-40
2022/03/11 05:44:23;;;;;;;45.75;29.17;;;;;;;31.72;50.56;100577.31;5078913;28;70177;-39
2022/03/11 05:46:55;;;;;;;41.33;28.38;;;;;;;31.75;50.61;100571.44;5062326;28;66163;-41
2022/03/11 05:49:26;;;;;;;36.95;26.23;;;;;;;31.80;50.13;100576.16;5068064;27;69785;-39
2022/03/11 05:51:57;;;;;;;42.83;27.85;;;;;;;31.78;50.15;100562.81;5072347;28;66300;-40
2022/03/11 05:54:28;;;;;;;40.40;26.52;;;;;;;31.86;50.31;100564.38;5059203;28;71399;-39
2022/03/11 05:57:04;;;;;;;36.90;26.60;;;;;;;31.89;49.53;100563.06;5055198;28;66231;-39
2022/03/11 05:59:35;;;;;;;43.00;26.30;;;;;;;31.93;49.39;100557.00;5069609;28;70411;-39
2022/03/11 06:02:05;;;;;;;43.33;27.13;;;;;;;31.95;49.56;100552.13;5078331;28;66655;-39
2022/03/11 06:04:37;;;;;;;44.00;27.95;;;;;;;31.97;49.11;100543.78;5077544;27;70577;-40
2022/03/11 06:07:08;;;;;;;46.47;27.58;;;;;;;32.00;49.67;100533.25;5078067;27;66348;-39
2022/03/11 06:09:38;;;;;;;42.17;28.48;;;;;;;32.02;49.30;100525.72;5082884;27;69904;-39
2022/03/11 06:12:10;;;;;;;37.13;25.37;;;;;;;32.03;49.09;100532.78;5067961;28;66656;-40
2022/03/11 06:14:41;;;;;;;37.30;25.20;;;;;;;32.07;48.72;100533.16;5075513;28;68684;-39
2022/03/11 06:17:12;;;;;;;40.28;25.33;;;;;;;32.09;48.84;100517.44;5058403;28;67010;-38
2022/03/11 06:19:42;;;;;;;39.33;26.60;;;;;;;32.14;48.19;100511.31;5083202;27;69508;-39
2022/03/11 06:22:13;;;;;;;32.70;23.83;;;;;;;32.16;48.45;100498.34;5069294;28;66492;-39
2022/03/11 06:24:43;;;;;;;35.08;25.20;;;;;;;32.20;48.17;100499.50;5075729;28;70055;-39
2022/03/11 06:27:14;;;;;;;41.65;24.40;;;;;;;32.24;48.08;100496.09;5078600;27;65713;-39
2022/03/11 06:29:45;;;;;;;41.33;24.98;;;;;;;32.24;47.76;100487.13;5079163;27;69376;-39
2022/03/11 06:32:15;;;;;;;38.85;25.05;;;;;;;32.28;47.78;100485.56;5062372;28;66702;-38
2022/03/11 06:34:48;;;;;;;37.70;24.70;;;;;;;31.96;48.01;100431.72;5076802;28;70240;-38
2022/03/11 06:37:18;;;;;;;40.80;24.98;;;;;;;32.35;47.94;100482.75;5073351;28;67121;-39
2022/03/11 06:39:49;;;;;;;34.08;25.08;;;;;;;32.32;47.50;100467.75;5070620;27;69749;-40
2022/03/11 06:42:20;;;;;;;34.70;23.70;;;;;;;32.38;47.86;100464.06;5075385;28;66198;-39
2022/03/11 06:44:51;;;;;;;37.60;24.10;;;;;;;32.43;47.43;100460.63;5069430;27;70124;-40
2022/03/11 06:47:22;;;;;;;38.67;23.65;;;;;;;32.46;46.95;100466.44;5072839;28;66507;-44
2022/03/11 06:49:52;;;;;;;34.17;23.05;;;;;;;32.47;46.53;100449.06;5074221;27;69869;-39
2022/03/11 06:52:23;;;;;;;34.80;23.88;;;;;;;32.56;46.26;100459.56;5072279;28;66502;-39
2022/03/11 06:54:54;;;;;;;32.63;23.38;;;;;;;32.62;46.39;100461.28;5060675;28;70792;-38
2022/03/11 06:57:25;;;;;;;32.00;22.60;;;;;;;32.63;46.03;100454.81;5072825;28;66258;-40
2022/03/11 06:59:56;;;;;;;31.95;23.02;;;;;;;32.64;46.02;100453.75;5073684;28;69868;-40
2022/03/11 07:02:28;;;;;;;26.35;21.15;;;;;;;32.58;45.59;100439.25;5077927;27;66715;-40
2022/03/11 07:04:59;;;;;;;;;;;;;;;32.43;46.11;100447.91;5070807;28;70221;-39
2022/03/11 07:07:31;;;;;;;29.73;22.02;;;;;;;32.69;45.82;100442.97;5067336;28;66932;-39
2022/03/11 07:10:05;;;;;;;29.25;22.70;;;;;;;32.74;45.42;100434.94;5072967;28;68726;-45
2022/03/11 07:12:37;;;;;;;34.08;23.35;;;;;;;32.81;46.11;100435.59;5070146;28;66303;-39
2022/03/11 07:15:09;;;;;;;30.98;22.83;;;;;;;32.78;45.48;100425.22;5074374;28;69957;-40
2022/03/11 07:17:40;;;;;;;;;;;;;;;32.54;46.13;100429.09;5075070;27;66251;-39
2022/03/11 07:20:11;;;;;;;35.55;22.80;;;;;;;32.84;45.75;100412.53;5070216;27;69236;-39
2022/03/11 07:22:47;;;;;;;29.98;21.45;;;;;;;32.84;45.40;100416.06;5065849;28;66978;-41
2022/03/11 07:25:20;;;;;;;33.70;22.52;;;;;;;32.89;45.47;100410.75;5041312;28;69170;-38
2022/03/11 07:27:52;;;;;;;29.15;22.90;;;;;;;32.94;45.18;100413.53;5069489;27;66224;-40
2022/03/11 07:30:23;;;;;;;36.35;22.92;;;;;;;32.85;45.53;100387.03;5052815;28;69869;-40
2022/03/11 07:32:54;;;;;;;35.77;22.37;;;;;;;32.98;45.04;100413.06;5069679;27;67333;-39
2022/03/11 07:35:26;;;;;;;33.47;23.75;;;;;;;32.99;44.99;100404.66;5071975;28;68954;-39
2022/03/11 07:37:57;;;;;;;39.22;23.50;;;;;;;32.99;45.41;100403.81;5071198;28;65707;-39
2022/03/11 07:40:28;;;;;;;29.55;22.98;;;;;;;32.94;45.29;100391.81;5069309;27;70296;-40
2022/03/11 07:42:58;;;;;;;34.50;23.80;;;;;;;33.05;44.99;100397.47;5070771;28;65288;-40
2022/03/11 07:45:30;;;;;;;35.33;22.70;;;;;;;33.06;44.92;100389.03;5067187;28;69748;-39
2022/03/11 07:48:02;;;;;;;32.90;23.52;;;;;;;33.05;45.18;100378.44;5058323;28;65483;-40
2022/03/11 07:50:33;;;;;;;32.22;23.25;;;;;;;33.11;45.05;100391.03;5063347;28;70627;-40
2022/03/11 07:53:05;;;;;;;32.95;21.88;;;;;;;33.06;46.59;100371.91;5080386;28;66887;-40
2022/03/11 07:55:37;;;;;;;25.23;20.17;;;;;;;32.84;47.74;100337.31;5089487;27;69537;-39
2022/03/11 07:58:08;;;;;;;26.92;20.00;;;;;;;33.26;48.25;100371.41;5060999;28;66333;-40
2022/03/11 08:01:16;;;;;;;31.67;20.25;;;;;;;33.25;48.16;100357.00;5059863;28;70043;-40
2022/03/11 08:03:48;;;;;;;27.52;19.38;;;;;;;33.35;48.02;100364.50;5059900;28;65649;-41
2022/03/11 08:06:18;;;;;;;29.48;19.50;;;;;;;33.38;48.21;100361.28;5066254;28;70419;-41
2022/03/11 08:08:49;;;;;;;23.67;19.67;;;;;;;33.46;48.06;100360.00;5063433;28;65100;-39
2022/03/11 08:11:20;;;;;;;30.80;20.00;;;;;;;33.40;47.86;100342.78;5073423;27;69010;-40
2022/03/11 08:13:50;;;;;;;27.05;19.50;;;;;;;33.51;47.98;100346.50;5072581;28;66409;-40
2022/03/11 08:16:22;;;;;;;25.98;19.20;;;;;;;33.56;47.96;100349.31;5058807;28;70006;-39
2022/03/11 08:18:54;;;;;;;29.90;20.27;;;;;;;33.54;47.93;100340.56;5067218;28;65824;-40
2022/03/11 08:21:28;;;;;;;25.55;19.35;;;;;;;33.62;47.97;100347.47;5070692;27;68879;-40
2022/03/11 08:23:58;;;;;;;31.40;19.67;;;;;;;33.64;47.44;100351.59;5069812;28;65291;-40
2022/03/11 08:26:29;;;;;;;27.25;19.40;;;;;;;33.58;48.07;100341.72;5066838;28;69691;-39
2022/03/11 08:29:01;;;;;;;26.17;19.80;;;;;;;33.69;48.23;100351.66;5066189;27;66494;-40
2022/03/11 08:31:49;;;;;;;25.45;19.63;;;;;;;33.73;47.72;100350.06;5074790;27;69770;-41
2022/03/11 08:34:20;;;;;;;26.40;19.80;;;;;;;33.65;47.72;100323.31;5058894;28;66360;-40
2022/03/11 08:37:10;;;;;;;26.05;18.63;;;;;;;33.81;47.87;100340.66;5069110;28;69594;-40
2022/03/11 08:39:41;;;;;;;30.05;19.70;;;;;;;33.85;47.79;100351.84;5065119;27;66803;-40
2022/03/11 08:42:11;;;;;;;23.08;18.85;;;;;;;33.79;47.36;100327.31;5071934;27;70312;-40
2022/03/11 08:44:42;;;;;;;21.98;17.98;;;;;;;33.89;47.35;100342.13;5076173;28;65774;-40
2022/03/11 08:47:14;;;;;;;25.60;19.48;;;;;;;33.92;47.38;100338.88;5066309;28;70015;-39
2022/03/11 08:49:45;;;;;;;23.65;19.02;;;;;;;33.92;47.37;100342.44;5080203;27;65403;-39
2022/03/11 08:52:16;;;;;;;26.25;19.25;;;;;;;33.94;47.58;100334.84;5059452;28;70158;-40
2022/03/11 08:54:47;;;;;;;26.92;19.13;;;;;;;33.98;47.52;100329.69;5072677;28;66728;-39
2022/03/11 08:57:18;;;;;;;;;;;;;;;33.72;47.76;100337.56;5065916;28;69902;-42
2022/03/11 08:59:49;;;;;;;26.23;18.73;;;;;;;33.72;47.17;100294.03;5080826;27;66937;-40
2022/03/11 09:02:22;;;;;;;24.70;19.77;;;;;;;34.04;47.47;100325.94;5066536;27;69117;-40
2022/03/11 09:04:54;;;;;;;25.92;18.63;;;;;;;34.05;47.33;100337.72;5081038;28;65415;-40
2022/03/11 09:07:29;;;;;;;;;;;;;;;33.81;47.72;100340.66;5074668;28;69949;-39
2022/03/11 09:10:05;;;;;;;27.08;19.30;;;;;;;34.07;47.33;100341.81;5058741;28;66149;-41
2022/03/11 09:12:37;;;;;;;28.92;19.70;;;;;;;34.11;47.72;100351.13;5073195;27;70048;-40
2022/03/11 09:15:10;;;;;;;29.45;19.55;;;;;;;34.12;47.92;100351.94;5059746;28;66786;-39
2022/03/11 09:17:41;;;;;;;27.65;19.10;;;;;;;34.12;48.13;100352.75;5058823;28;70089;-39
2022/03/11 09:20:13;;;;;;;21.07;18.87;;;;;;;33.47;47.66;100234.69;5059800;28;65667;-39
2022/03/11 09:22:57;;;;;;;30.92;19.42;;;;;;;34.07;47.49;100338.25;5058113;28;70109;-39
2022/03/11 09:25:27;;;;;;;;;;;;;;;33.90;47.91;100349.19;5069163;28;64987;-40
2022/03/11 09:28:03;;;;;;;25.25;20.25;;;;;;;34.13;47.22;100353.56;5081898;27;69054;-40
2022/03/11 09:30:35;;;;;;;21.10;18.83;;;;;;;34.07;47.52;100327.38;5058862;28;65282;-39
2022/03/11 09:33:06;;;;;;;26.13;20.47;;;;;;;34.10;47.35;100338.59;5060566;28;70595;-40
2022/03/11 09:35:37;;;;;;;22.15;19.88;;;;;;;34.14;47.43;100341.63;5079424;28;66561;-39
2022/03/11 09:38:07;;;;;;;30.67;21.33;;;;;;;34.13;47.28;100351.69;5079912;28;70483;-40
2022/03/11 09:40:42;;;;;;;26.00;20.00;;;;;;;34.17;47.01;100354.72;5079325;28;66572;-40
2022/03/11 09:43:18;;;;;;;25.92;20.67;;;;;;;34.19;47.06;100361.56;5079416;27;69766;-41
2022/03/11 09:45:49;;;;;;;26.50;22.27;;;;;;;34.13;47.02;100348.97;5078422;28;65914;-40
2022/03/11 09:48:21;;;;;;;23.98;21.42;;;;;;;34.20;46.95;100370.53;5079600;27;70570;-40
2022/03/11 09:50:52;;;;;;;32.45;21.65;;;;;;;34.08;46.99;100365.25;5080518;27;65549;-40
2022/03/11 09:53:23;;;;;;;33.40;21.30;;;;;;;34.18;46.95;100387.09;5061153;27;70817;-38
2022/03/11 09:55:54;;;;;;;29.77;22.23;;;;;;;34.18;47.01;100378.13;5076168;27;66234;-40
2022/03/11 09:58:25;;;;;;;30.20;21.63;;;;;;;34.11;47.35;100378.34;5072850;28;69410;-39
2022/03/11 10:00:59;;;;;;;30.30;23.15;;;;;;;34.13;47.81;100387.06;5058909;28;65679;-41
2022/03/11 10:03:30;;;;;;;31.48;22.60;;;;;;;34.18;47.42;100406.16;5062558;28;68018;-41
2022/03/11 10:06:01;;;;;;;31.55;22.67;;;;;;;34.13;47.58;100392.53;5059851;28;66284;-40
2022/03/11 10:08:37;;;;;;;35.95;23.75;;;;;;;33.88;47.57;100352.19;5058059;28;70382;-40
2022/03/11 10:11:26;;;;;;;33.55;23.35;;;;;;;33.73;47.88;100350.06;5071371;28;66313;-39
2022/03/11 10:14:08;;;;;;;35.67;24.38;;;;;;;34.12;47.90;100420.78;5075106;28;70416;-39
2022/03/11 10:16:40;;;;;;;29.75;23.70;;;;;;;34.13;48.26;100417.03;5058973;28;66042;-40
2022/03/11 10:19:13;;;;;;;40.72;24.27;;;;;;;34.14;48.21;100426.00;5071368;28;70023;-40
2022/03/11 10:21:45;;;;;;;32.10;22.38;;;;;;;34.10;48.33;100425.69;5070932;27;66486;-40
2022/03/11 10:24:18;;;;;;;;;;;;;;;33.78;49.72;100434.47;5060526;28;69892;-39
2022/03/11 10:26:53;;;;;;;39.60;23.77;;;;;;;34.01;48.42;100433.41;5072133;27;65891;-40
2022/03/11 10:29:32;;;;;;;31.05;22.92;;;;;;;33.68;48.53;100384.53;5070146;27;70327;-40
2022/03/11 10:32:06;;;;;;;27.85;21.50;;;;;;;34.03;48.37;100444.06;5066570;28;66523;-40
2022/03/11 10:34:37;;;;;;;29.60;21.48;;;;;;;33.94;48.16;100440.16;5070846;27;69197;-41
2022/03/11 10:37:12;;;;;;;33.53;22.23;;;;;;;33.62;48.35;100391.81;5071214;27;66256;-40
2022/03/11 10:39:45;;;;;;;35.58;23.25;;;;;;;33.97;48.86;100453.25;5057901;28;69704;-40
2022/03/11 10:42:21;;;;;;;29.85;22.10;;;;;;;33.66;48.02;100401.13;5058336;28;66139;-41
2022/03/11 10:44:56;;;;;;;28.60;22.00;;;;;;;33.57;47.95;100394.47;5072002;28;70262;-40
2022/03/11 10:47:30;;;;;;;34.05;22.13;;;;;;;33.95;48.47;100455.38;5069867;28;66425;-40
2022/03/11 10:50:06;;;;;;;31.02;20.65;;;;;;;33.52;48.21;100392.50;5059280;28;70103;-40
2022/03/11 10:52:43;;;;;;;29.20;20.95;;;;;;;33.92;48.16;100461.31;5066953;28;65344;-41
2022/03/11 10:55:26;;;;;;;34.10;21.77;;;;;;;33.89;48.04;100472.72;5075545;27;69023;-41
2022/03/11 10:57:58;;;;;;;34.22;21.17;;;;;;;33.80;48.12;100470.44;5061630;28;65620;-41
2022/03/11 11:00:39;;;;;;;29.33;19.08;;;;;;;33.83;48.38;100480.00;5075633;28;70494;-40
2022/03/11 11:03:13;;;;;;;24.33;19.73;;;;;;;33.81;47.96;100488.38;5074920;28;66378;-40
2022/03/11 11:05:45;;;;;;;29.02;19.35;;;;;;;33.76;48.43;100480.13;5064525;28;70125;-39
2022/03/11 11:11:52;;;;;;;27.63;18.73;;;;;;;33.72;47.88;100495.34;5030282;28;70660;-38
2022/03/11 11:14:23;;;;;;;23.35;18.92;;;;;;;33.67;47.96;100487.09;5067707;28;66194;-40
2022/03/11 11:16:56;;;;;;;26.20;17.30;;;;;;;33.52;47.99;100462.38;5073360;28;68899;-41
2022/03/11 11:19:29;;;;;;;32.38;17.23;;;;;;;33.71;47.87;100520.03;5075315;28;66315;-40
2022/03/11 11:22:00;;;;;;;24.85;16.60;;;;;;;33.63;47.65;100498.69;5054904;28;69130;-41
2022/03/11 11:24:35;;;;;;;20.38;15.13;;;;;;;33.67;47.45;100524.34;5076135;28;66006;-40
2022/03/11 11:27:08;;;;;;;19.05;13.38;;;;;;;33.66;46.75;100534.41;5081023;27;70002;-40
2022/03/11 11:29:40;;;;;;;22.75;12.52;;;;;;;33.67;46.93;100522.44;5074513;28;66765;-41
2022/03/11 11:32:11;;;;;;;26.58;13.30;;;;;;;33.54;47.63;100536.38;5069637;28;70469;-44
2022/03/11 11:34:42;;;;;;;15.55;12.05;;;;;;;33.34;48.01;100537.63;5074353;28;65289;-42
2022/03/11 11:37:47;;;;;;;21.98;12.27;;;;;;;33.04;48.53;100537.09;5073194;28;69572;-46